Main page
METAR-TAF:

METAR-TAF

Airports :

Beauvais, France

Beauvais–Tillé Airport

latitude: 49-28N, longitude: 002-07E, elevation: 109 m

Current weather observation

The report was made 29 minutes ago, at 11:30 UTC
Wind 13 kt from the Southwest
Temperature 10°C
Humidity 87%
Pressure 1020 hPa
Visibility 10 km or more
Broken clouds at a height of 1200 ft
Overcast at a height of 3700 ft

METAR: LFOB 201130Z AUTO 23013KT 9999 BKN012 OVC037 10/08 Q1020 BECMG OVC020

Time: 12:59 (11:59 UTC)

Forecast

The report was made 59 minutes ago, at 11:00 UTC
Forecast valid from 20 at 12 UTC to 21 at 12 UTC
Wind 10 kt from the Southwest
Visibility 10 km or more
Overcast at a height of 1200 ft
Becoming
from 20 at 12 UTC to 20 at 14 UTC
Overcast at a height of 2000 ft
Probability 30%
from 21 at 00 UTC to 21 at 05 UTC
Visibility: 1500 m
mist
Temporary
from 21 at 02 UTC to 21 at 12 UTC
Overcast at a height of 600 ft

TAF: LFOB 201100Z 2012/2112 22010KT 9999 OVC012 BECMG 2012/2014 OVC020 PROB30 2100/2105 1500 BR TEMPO 2102/2112 OVC006

Weather observations and forecasts of more than 4000 airports (METAR and TAF reports).

The available stations are represented by yellow and red dots on the map.

Hover mouse over dot to see the name of the station.

Then click to see weather observations and forecasts.

To change the map : click on the green buttons with a black cross to zoom in, on the green button with a dash to zoom out, or on the green arrows for adjacent maps.


METAR-TAF: